createdAt,value
2022-08-01T00:00:33.558Z,21.99
2022-08-01T00:01:33.549Z,21.96
2022-08-01T00:02:33.589Z,21.95
2022-08-01T00:03:33.529Z,21.93
2022-08-01T00:04:33.529Z,21.95
2022-08-01T00:05:33.503Z,21.91
2022-08-01T00:06:33.490Z,21.91
2022-08-01T00:07:33.481Z,21.88
2022-08-01T00:08:33.468Z,21.85
2022-08-01T00:09:33.511Z,21.85
2022-08-01T00:10:33.448Z,21.83
2022-08-01T00:11:33.440Z,21.82
2022-08-01T00:12:33.433Z,21.80
2022-08-01T00:13:33.411Z,21.80
2022-08-01T00:14:33.402Z,21.80
2022-08-01T00:15:33.416Z,21.76
2022-08-01T00:16:33.382Z,21.77
2022-08-01T00:17:33.370Z,21.75
2022-08-01T00:18:33.361Z,21.75
2022-08-01T00:19:33.353Z,21.72
2022-08-01T00:20:33.357Z,21.69
2022-08-01T00:21:33.334Z,21.66
2022-08-01T00:22:33.311Z,21.64
2022-08-01T00:23:33.302Z,21.60
2022-08-01T00:24:33.295Z,21.52
2022-08-01T00:25:33.699Z,21.46
2022-08-01T00:26:33.283Z,21.40
2022-08-01T00:27:33.262Z,21.37
2022-08-01T00:28:33.243Z,21.32
2022-08-01T00:30:13.385Z,21.29
2022-08-01T00:30:34.223Z,21.27
2022-08-01T00:31:33.243Z,21.24
2022-08-01T00:32:33.194Z,21.22
2022-08-01T00:33:33.194Z,21.21
2022-08-01T00:34:33.183Z,21.20
2022-08-01T00:35:33.168Z,21.18
2022-08-01T00:36:33.153Z,21.18
2022-08-01T00:37:33.163Z,21.15
2022-08-01T00:38:33.173Z,21.14
2022-08-01T00:39:33.124Z,21.14
2022-08-01T00:40:33.114Z,21.12
2022-08-01T00:41:33.094Z,21.09
2022-08-01T00:42:33.086Z,21.06
2022-08-01T00:43:33.095Z,21.05
2022-08-01T00:44:33.064Z,21.02
2022-08-01T00:45:33.059Z,21.02
2022-08-01T00:46:33.047Z,20.99
2022-08-01T00:47:33.037Z,20.99
2022-08-01T00:48:33.036Z,20.97
2022-08-01T00:49:33.055Z,20.93
2022-08-01T00:50:32.995Z,20.90
2022-08-01T00:51:32.985Z,20.90
2022-08-01T00:52:32.977Z,20.87
2022-08-01T00:53:50.714Z,20.85
2022-08-01T00:54:33.968Z,20.81
2022-08-01T00:55:32.939Z,20.78
2022-08-01T00:56:32.927Z,20.75
2022-08-01T00:58:02.174Z,20.72
2022-08-01T00:58:33.906Z,20.74
2022-08-01T00:59:32.895Z,20.72
2022-08-01T01:00:34.867Z,20.69
2022-08-01T01:01:39.523Z,20.67
2022-08-01T01:02:33.861Z,20.66
2022-08-01T01:03:57.609Z,20.63
2022-08-01T01:04:33.837Z,20.63
2022-08-01T01:05:37.080Z,20.62
2022-08-01T01:06:32.829Z,20.59
2022-08-01T01:07:32.808Z,20.56
2022-08-01T01:08:32.787Z,20.56
2022-08-01T01:09:32.778Z,20.52
2022-08-01T01:10:32.769Z,20.52
2022-08-01T01:11:32.799Z,20.50
2022-08-01T01:12:37.417Z,20.48
2022-08-01T01:13:33.738Z,20.47
2022-08-01T01:14:32.719Z,20.43
2022-08-01T01:15:32.709Z,20.41
2022-08-01T01:16:32.700Z,20.44
2022-08-01T01:17:51.188Z,20.44
2022-08-01T01:18:33.672Z,20.47
2022-08-01T01:19:32.669Z,20.50
2022-08-01T01:20:32.649Z,20.51
2022-08-01T01:21:32.640Z,20.51
2022-08-01T01:22:32.630Z,20.52
2022-08-01T01:23:32.640Z,20.56
2022-08-01T01:24:32.610Z,20.56
2022-08-01T01:25:32.598Z,20.58
2022-08-01T01:26:32.592Z,20.58
2022-08-01T01:27:32.574Z,20.58
2022-08-01T01:28:32.560Z,20.59
2022-08-01T01:29:58.484Z,20.59
2022-08-01T01:30:33.541Z,20.60
2022-08-01T01:31:32.530Z,20.59
2022-08-01T01:32:32.521Z,20.58
2022-08-01T01:33:32.503Z,20.58
2022-08-01T01:34:32.491Z,20.58
2022-08-01T01:35:32.502Z,20.56
2022-08-01T01:36:32.471Z,20.56
2022-08-01T01:37:32.451Z,20.56
2022-08-01T01:38:32.452Z,20.56
2022-08-01T01:39:32.432Z,20.56
2022-08-01T01:40:32.438Z,20.56
2022-08-01T01:41:32.432Z,20.56
2022-08-01T01:42:32.404Z,20.58
2022-08-01T01:43:33.426Z,20.56
2022-08-01T01:44:32.381Z,20.50
2022-08-01T01:45:32.363Z,20.48
2022-08-01T01:46:32.356Z,20.47
2022-08-01T01:47:32.363Z,20.44
2022-08-01T01:48:32.335Z,20.47
2022-08-01T01:49:32.355Z,20.48
2022-08-01T01:50:32.312Z,20.48
2022-08-01T01:51:32.297Z,20.51
2022-08-01T01:52:32.284Z,20.51
2022-08-01T01:53:32.287Z,20.51
2022-08-01T01:54:32.270Z,20.51
2022-08-01T01:55:32.245Z,20.51
2022-08-01T01:56:32.238Z,20.50
2022-08-01T01:57:32.224Z,20.48
2022-08-01T01:58:32.237Z,20.47
2022-08-01T01:59:32.205Z,20.44
2022-08-01T02:00:32.194Z,20.43
2022-08-01T02:02:08.241Z,20.41
2022-08-01T02:02:33.222Z,20.40
2022-08-01T02:03:32.157Z,20.39
2022-08-01T02:04:32.166Z,20.37
2022-08-01T02:05:32.135Z,20.37
2022-08-01T02:06:32.126Z,20.39
2022-08-01T02:07:32.106Z,20.39
2022-08-01T02:08:32.097Z,20.36
2022-08-01T02:09:32.089Z,20.34
2022-08-01T02:10:32.097Z,20.29
2022-08-01T02:11:32.068Z,20.28
2022-08-01T02:12:32.059Z,20.26
2022-08-01T02:13:32.055Z,20.26
2022-08-01T02:14:32.036Z,20.26
2022-08-01T02:15:32.067Z,20.25
2022-08-01T02:16:32.008Z,20.26
2022-08-01T02:17:32.012Z,20.26
2022-08-01T02:18:31.989Z,20.25
2022-08-01T02:19:31.968Z,20.21
2022-08-01T02:20:31.969Z,20.16
2022-08-01T02:21:31.969Z,20.11
2022-08-01T02:22:31.948Z,20.10
2022-08-01T02:23:31.953Z,20.07
2022-08-01T02:24:31.919Z,20.06
2022-08-01T02:25:31.911Z,20.03
2022-08-01T02:26:31.891Z,19.96
2022-08-01T02:27:31.899Z,19.92
2022-08-01T02:28:31.879Z,19.88
2022-08-01T02:29:31.858Z,19.86
2022-08-01T02:30:31.850Z,19.85
2022-08-01T02:31:31.835Z,19.84
2022-08-01T02:32:31.860Z,19.81
2022-08-01T02:33:31.811Z,19.79
2022-08-01T02:34:31.801Z,19.76
2022-08-01T02:35:31.791Z,19.74
2022-08-01T02:36:33.455Z,19.74
2022-08-01T02:37:31.772Z,19.74
2022-08-01T02:38:31.771Z,19.73
2022-08-01T02:39:31.746Z,19.70
2022-08-01T02:40:31.742Z,19.67
2022-08-01T02:41:31.730Z,19.67
2022-08-01T02:42:31.715Z,19.64
2022-08-01T02:43:31.732Z,19.66
2022-08-01T02:44:31.692Z,19.66
2022-08-01T02:45:31.682Z,19.66
2022-08-01T02:46:31.680Z,19.64
2022-08-01T02:47:31.664Z,19.64
2022-08-01T02:48:31.653Z,19.64
2022-08-01T02:49:31.680Z,19.64
2022-08-01T02:50:31.633Z,19.66
2022-08-01T02:51:31.615Z,19.67
2022-08-01T02:52:31.625Z,19.69
2022-08-01T02:53:41.614Z,19.70
2022-08-01T02:54:32.603Z,19.71
2022-08-01T02:55:31.564Z,19.73
2022-08-01T02:56:38.629Z,19.73
2022-08-01T02:57:47.312Z,19.74
2022-08-01T02:58:32.546Z,19.79
2022-08-01T02:59:31.528Z,19.79
2022-08-01T03:00:31.556Z,19.81
2022-08-01T03:01:31.567Z,19.79
2022-08-01T03:02:31.497Z,19.82
2022-08-01T03:03:31.480Z,19.85
2022-08-01T03:04:31.479Z,19.86
2022-08-01T03:05:31.455Z,19.89
2022-08-01T03:06:31.469Z,19.91
2022-08-01T03:07:34.139Z,19.92
2022-08-01T03:08:31.429Z,19.91
2022-08-01T03:09:31.409Z,19.94
2022-08-01T03:10:31.400Z,19.94
2022-08-01T03:11:31.389Z,19.95
2022-08-01T03:12:31.401Z,19.99
2022-08-01T03:13:31.362Z,20.00
2022-08-01T03:14:31.349Z,20.02
2022-08-01T03:15:31.340Z,20.04
2022-08-01T03:16:31.341Z,20.06
2022-08-01T03:17:31.367Z,20.06
2022-08-01T03:18:31.322Z,20.09
2022-08-01T03:19:31.292Z,20.09
2022-08-01T03:20:31.293Z,20.10
2022-08-01T03:21:31.271Z,20.10
2022-08-01T03:22:31.272Z,20.09
2022-08-01T03:23:38.313Z,20.10
2022-08-01T03:24:32.239Z,20.09
2022-08-01T03:25:31.233Z,20.06
2022-08-01T03:26:31.211Z,20.06
2022-08-01T03:27:31.201Z,20.04
2022-08-01T03:28:31.220Z,20.02
2022-08-01T03:29:31.194Z,19.94
2022-08-01T03:30:31.173Z,19.88
2022-08-01T03:31:31.161Z,19.82
2022-08-01T03:32:31.142Z,19.77
2022-08-01T03:33:31.135Z,19.76
2022-08-01T03:34:31.143Z,19.70
2022-08-01T03:35:31.104Z,19.67
2022-08-01T03:36:31.106Z,19.67
2022-08-01T03:37:31.083Z,19.64
2022-08-01T03:38:31.083Z,19.56
2022-08-01T03:39:31.075Z,19.52
2022-08-01T03:40:31.053Z,19.49
2022-08-01T03:41:31.035Z,19.48
2022-08-01T03:42:31.033Z,19.48
2022-08-01T03:43:31.014Z,19.47
2022-08-01T03:44:31.029Z,19.45
2022-08-01T03:45:30.984Z,19.47
2022-08-01T03:46:30.984Z,19.45
2022-08-01T03:47:30.965Z,19.47
2022-08-01T03:48:30.954Z,19.47
2022-08-01T03:49:31.027Z,19.44
2022-08-01T03:50:30.955Z,19.40
2022-08-01T03:51:30.936Z,19.36
2022-08-01T03:52:30.920Z,19.34
2022-08-01T03:53:30.896Z,19.31
2022-08-01T03:54:30.895Z,19.26
2022-08-01T03:55:30.897Z,19.22
2022-08-01T03:56:30.865Z,19.19
2022-08-01T03:57:36.540Z,19.16
2022-08-01T03:58:31.850Z,19.15
2022-08-01T03:59:30.826Z,19.12
2022-08-01T04:00:30.826Z,19.16
2022-08-01T04:01:30.900Z,19.16
2022-08-01T04:02:30.806Z,19.18
2022-08-01T04:03:30.786Z,19.15
2022-08-01T04:04:30.777Z,19.16
2022-08-01T04:05:30.807Z,19.18
2022-08-01T04:06:30.777Z,19.16
2022-08-01T04:07:30.747Z,19.18
2022-08-01T04:08:30.738Z,19.18
2022-08-01T04:09:30.725Z,19.16
2022-08-01T04:10:30.709Z,19.14
2022-08-01T04:11:30.697Z,19.15
2022-08-01T04:12:30.717Z,19.12
2022-08-01T04:13:37.141Z,19.12
2022-08-01T04:14:31.668Z,19.12
2022-08-01T04:15:30.649Z,19.16
2022-08-01T04:16:30.647Z,19.21
2022-08-01T04:17:30.635Z,19.26
2022-08-01T04:18:30.700Z,19.31
2022-08-01T04:19:30.608Z,19.37
2022-08-01T04:20:30.599Z,19.40
2022-08-01T04:21:30.699Z,19.49
2022-08-01T04:22:30.577Z,19.52
2022-08-01T04:23:30.559Z,19.62
2022-08-01T04:24:30.639Z,19.66
2022-08-01T04:25:30.537Z,19.70
2022-08-01T04:26:30.529Z,19.73
2022-08-01T04:27:50.031Z,19.76
2022-08-01T04:28:31.513Z,19.81
2022-08-01T04:29:30.521Z,19.85
2022-08-01T04:30:30.480Z,19.86
2022-08-01T04:31:30.471Z,19.88
2022-08-01T04:32:30.461Z,19.92
2022-08-01T04:33:30.449Z,19.96
2022-08-01T04:34:30.440Z,19.99
2022-08-01T04:36:01.757Z,20.03
2022-08-01T04:36:31.422Z,20.09
2022-08-01T04:37:30.399Z,20.11
2022-08-01T04:38:30.395Z,20.18
2022-08-01T04:39:30.382Z,20.21
2022-08-01T04:40:30.362Z,20.22
2022-08-01T04:41:30.372Z,20.28
2022-08-01T04:42:33.578Z,20.31
2022-08-01T04:43:30.331Z,20.32
2022-08-01T04:44:32.715Z,20.37
2022-08-01T04:45:30.304Z,20.40
2022-08-01T04:46:30.300Z,20.43
2022-08-01T04:47:30.303Z,20.44
2022-08-01T04:48:30.285Z,20.48
2022-08-01T04:49:30.298Z,20.47
2022-08-01T04:50:30.397Z,20.50
2022-08-01T04:51:30.233Z,20.51
2022-08-01T04:52:30.225Z,20.51
2022-08-01T04:53:30.245Z,20.51
2022-08-01T04:54:30.207Z,20.52
2022-08-01T04:55:30.193Z,20.51
2022-08-01T04:56:30.183Z,20.50
2022-08-01T04:57:30.164Z,20.51
2022-08-01T04:58:30.162Z,20.55
2022-08-01T04:59:30.154Z,20.56
2022-08-01T05:00:30.144Z,20.58
2022-08-01T05:01:30.157Z,20.60
2022-08-01T05:02:30.126Z,20.65
2022-08-01T05:03:30.094Z,20.69
2022-08-01T05:04:30.114Z,20.70
2022-08-01T05:05:30.065Z,20.75
2022-08-01T05:06:30.065Z,20.75
2022-08-01T05:07:30.046Z,20.78
2022-08-01T05:08:30.045Z,20.80
2022-08-01T05:09:31.282Z,20.82
2022-08-01T05:10:30.037Z,20.87
2022-08-01T05:11:30.003Z,20.90
2022-08-01T05:12:29.998Z,20.93
2022-08-01T05:13:29.977Z,20.99
2022-08-01T05:14:29.966Z,21.06
2022-08-01T05:15:29.956Z,21.14
2022-08-01T05:16:29.986Z,21.20
2022-08-01T05:17:29.937Z,21.27
2022-08-01T05:18:29.928Z,21.33
2022-08-01T05:19:29.916Z,21.42
2022-08-01T05:20:29.907Z,21.51
2022-08-01T05:21:29.918Z,21.60
2022-08-01T05:22:29.897Z,21.70
2022-08-01T05:23:37.761Z,21.77
2022-08-01T05:24:30.883Z,21.83
2022-08-01T05:25:49.651Z,21.91
2022-08-01T05:26:30.858Z,21.95
2022-08-01T05:27:29.829Z,21.93
2022-08-01T05:28:29.817Z,21.92
2022-08-01T05:29:29.811Z,21.92
2022-08-01T05:30:29.798Z,21.93
2022-08-01T05:31:29.789Z,21.93
2022-08-01T05:32:29.796Z,22.00
2022-08-01T05:33:29.769Z,22.07
2022-08-01T05:34:29.752Z,22.13
2022-08-01T05:35:48.636Z,22.15
2022-08-01T05:36:30.728Z,22.17
2022-08-01T05:37:29.742Z,22.22
2022-08-01T05:38:29.700Z,22.25
2022-08-01T05:39:29.690Z,22.30
2022-08-01T05:40:29.680Z,22.33
2022-08-01T05:41:29.671Z,22.33
2022-08-01T05:42:29.682Z,22.36
2022-08-01T05:43:29.682Z,22.36
2022-08-01T05:44:29.640Z,22.39
2022-08-01T05:45:29.633Z,22.43
2022-08-01T05:46:29.612Z,22.45
2022-08-01T05:47:29.611Z,22.45
2022-08-01T05:48:29.592Z,22.45
2022-08-01T05:49:29.705Z,22.47
2022-08-01T05:50:29.572Z,22.39
2022-08-01T05:51:29.564Z,22.36
2022-08-01T05:52:29.554Z,22.36
2022-08-01T05:53:29.552Z,22.38
2022-08-01T05:54:29.534Z,22.44
2022-08-01T05:55:29.546Z,22.48
2022-08-01T05:56:32.333Z,22.59
2022-08-01T05:57:29.496Z,22.69
2022-08-01T05:58:29.485Z,22.81
2022-08-01T05:59:29.502Z,22.93
2022-08-01T06:00:29.462Z,23.03
2022-08-01T06:01:29.463Z,23.10
2022-08-01T06:02:29.519Z,23.15
2022-08-01T06:03:29.424Z,23.24
2022-08-01T06:04:29.414Z,23.25
2022-08-01T06:05:29.404Z,23.18
2022-08-01T06:06:29.425Z,23.18
2022-08-01T06:07:29.385Z,23.17
2022-08-01T06:08:29.367Z,23.17
2022-08-01T06:09:29.369Z,23.17
2022-08-01T06:10:29.486Z,23.21
2022-08-01T06:11:29.338Z,23.21
2022-08-01T06:12:32.494Z,23.13
2022-08-01T06:13:30.317Z,23.10
2022-08-01T06:14:29.317Z,23.02
2022-08-01T06:15:29.296Z,22.99
2022-08-01T06:16:29.299Z,22.94
2022-08-01T06:17:29.318Z,22.84
2022-08-01T06:18:29.286Z,22.75
2022-08-01T06:19:29.323Z,22.72
2022-08-01T06:20:29.247Z,22.68
2022-08-01T06:21:29.228Z,22.60
2022-08-01T06:22:29.217Z,22.44
2022-08-01T06:23:32.013Z,22.38
2022-08-01T06:24:29.242Z,22.28
2022-08-01T06:25:29.198Z,22.11
2022-08-01T06:26:29.169Z,22.11
2022-08-01T06:27:29.160Z,22.10
2022-08-01T06:28:29.147Z,22.07
2022-08-01T06:29:29.139Z,22.00
2022-08-01T06:30:29.141Z,22.00
2022-08-01T06:31:33.417Z,22.02
2022-08-01T06:32:29.100Z,22.07
2022-08-01T06:33:29.090Z,22.14
2022-08-01T06:34:29.079Z,22.20
2022-08-01T06:35:29.091Z,22.20
2022-08-01T06:36:29.058Z,22.18
2022-08-01T06:37:29.049Z,22.20
2022-08-01T06:38:29.030Z,22.20
2022-08-01T06:39:29.031Z,22.23
2022-08-01T06:40:29.012Z,22.26
2022-08-01T06:41:29.041Z,22.28
2022-08-01T06:42:28.990Z,22.29
2022-08-01T06:43:28.984Z,22.28
2022-08-01T06:44:28.969Z,22.30
2022-08-01T06:45:28.974Z,22.35
2022-08-01T06:46:30.252Z,22.35
2022-08-01T06:47:28.965Z,22.36
2022-08-01T06:48:28.949Z,22.33
2022-08-01T06:49:28.976Z,22.29
2022-08-01T06:50:28.901Z,22.25
2022-08-01T06:51:28.893Z,22.25
2022-08-01T06:52:28.875Z,22.26
2022-08-01T06:53:30.092Z,22.28
2022-08-01T06:54:28.852Z,22.32
2022-08-01T06:55:28.843Z,22.38
2022-08-01T06:56:28.833Z,22.44
2022-08-01T06:57:28.823Z,22.54
2022-08-01T06:58:28.815Z,22.57
2022-08-01T06:59:28.825Z,22.63
2022-08-01T07:00:28.816Z,22.68
2022-08-01T07:01:28.811Z,22.76
2022-08-01T07:02:28.794Z,22.90
2022-08-01T07:03:44.562Z,23.03
2022-08-01T07:04:29.772Z,23.13
2022-08-01T07:05:28.735Z,23.25
2022-08-01T07:06:28.717Z,23.31
2022-08-01T07:07:28.716Z,23.43
2022-08-01T07:08:28.705Z,23.51
2022-08-01T07:09:28.685Z,23.62
2022-08-01T07:10:28.696Z,23.65
2022-08-01T07:11:28.675Z,23.66
2022-08-01T07:12:28.653Z,23.74
2022-08-01T07:13:36.687Z,23.80
2022-08-01T07:14:29.647Z,23.83
2022-08-01T07:15:28.657Z,23.91
2022-08-01T07:16:28.614Z,23.99
2022-08-01T07:17:28.607Z,24.06
2022-08-01T07:18:28.587Z,24.11
2022-08-01T07:19:28.578Z,24.10
2022-08-01T07:20:28.568Z,23.98
2022-08-01T07:21:39.286Z,23.98
2022-08-01T07:22:29.538Z,23.98
2022-08-01T07:23:30.446Z,23.87
2022-08-01T07:24:29.527Z,23.80
2022-08-01T07:25:28.527Z,23.61
2022-08-01T07:26:28.570Z,23.41
2022-08-01T07:27:28.556Z,23.39
2022-08-01T07:28:28.483Z,23.44
2022-08-01T07:29:28.474Z,23.55
2022-08-01T07:30:28.450Z,23.65
2022-08-01T07:31:32.026Z,23.69
2022-08-01T07:32:28.438Z,23.78
2022-08-01T07:33:28.452Z,23.81
2022-08-01T07:34:29.413Z,23.84
2022-08-01T07:35:28.408Z,23.88
2022-08-01T07:36:28.390Z,23.95
2022-08-01T07:37:42.092Z,23.95
2022-08-01T07:38:29.392Z,23.83
2022-08-01T07:39:28.360Z,23.68
2022-08-01T07:40:28.351Z,23.54
2022-08-01T07:41:53.604Z,23.50
2022-08-01T07:42:29.325Z,23.55
2022-08-01T07:43:28.325Z,23.63
2022-08-01T07:44:29.163Z,23.74
2022-08-01T07:45:28.298Z,23.81
2022-08-01T07:46:28.272Z,23.88
2022-08-01T07:47:28.280Z,24.02
2022-08-01T07:48:28.264Z,24.20
2022-08-01T07:49:28.320Z,24.38
2022-08-01T07:50:28.258Z,24.60
2022-08-01T07:51:29.231Z,24.85
2022-08-01T07:52:28.217Z,25.07
2022-08-01T07:53:28.215Z,25.31
2022-08-01T07:54:33.559Z,25.48
2022-08-01T07:55:29.204Z,25.58
2022-08-01T07:56:28.197Z,25.70
2022-08-01T07:57:28.182Z,25.87
2022-08-01T07:58:28.154Z,25.98
2022-08-01T07:59:28.169Z,26.07
2022-08-01T08:00:28.135Z,26.22
2022-08-01T08:01:28.193Z,26.44
2022-08-01T08:02:28.150Z,26.65
2022-08-01T08:03:28.095Z,27.10
2022-08-01T08:04:28.078Z,27.14
2022-08-01T08:05:58.371Z,27.15
2022-08-01T08:06:29.057Z,27.22
2022-08-01T08:07:28.075Z,27.14
2022-08-01T08:08:28.036Z,26.77
2022-08-01T08:09:28.029Z,26.58
2022-08-01T08:10:28.014Z,26.56
2022-08-01T08:11:28.007Z,26.37
2022-08-01T08:12:28.905Z,26.26
2022-08-01T08:13:28.016Z,26.37
2022-08-01T08:14:32.238Z,26.34
2022-08-01T08:15:28.969Z,26.45
2022-08-01T08:16:27.951Z,26.53
2022-08-01T08:17:27.939Z,26.63
2022-08-01T08:18:28.010Z,26.68
2022-08-01T08:19:38.540Z,26.65
2022-08-01T08:20:28.908Z,26.62
2022-08-01T08:21:27.910Z,26.48
2022-08-01T08:22:27.881Z,26.45
2022-08-01T08:23:43.015Z,26.40
2022-08-01T08:24:28.880Z,26.21
2022-08-01T08:25:27.860Z,26.16
2022-08-01T08:26:27.842Z,26.05
2022-08-01T08:27:27.851Z,26.02
2022-08-01T08:28:28.330Z,25.99
2022-08-01T08:29:27.842Z,25.95
2022-08-01T08:30:27.792Z,26.00
2022-08-01T08:31:51.917Z,26.00
2022-08-01T08:32:28.782Z,25.88
2022-08-01T08:33:27.773Z,25.88
2022-08-01T08:34:27.765Z,25.88
2022-08-01T08:35:40.265Z,25.70
2022-08-01T08:36:31.138Z,25.69
2022-08-01T08:37:31.428Z,25.59
2022-08-01T08:38:30.068Z,25.51
2022-08-01T08:39:27.714Z,25.55
2022-08-01T08:40:27.760Z,25.47
2022-08-01T08:41:27.695Z,25.38
2022-08-01T08:42:28.674Z,25.50
2022-08-01T08:43:27.659Z,25.72
2022-08-01T08:44:27.651Z,25.75
2022-08-01T08:45:58.063Z,25.70
2022-08-01T08:46:28.637Z,26.00
2022-08-01T08:47:27.626Z,26.34
2022-08-01T08:48:27.916Z,26.56
2022-08-01T08:49:27.608Z,27.30
2022-08-01T08:50:28.578Z,28.39
2022-08-01T08:51:27.588Z,29.08
2022-08-01T08:52:27.588Z,28.94
2022-08-01T08:53:34.452Z,28.85
2022-08-01T08:54:31.212Z,29.63
2022-08-01T08:55:27.528Z,30.32
2022-08-01T08:56:28.299Z,31.09
2022-08-01T08:57:34.577Z,31.96
2022-08-01T08:58:31.452Z,32.58
2022-08-01T08:59:28.494Z,32.45
2022-08-01T09:00:29.097Z,31.12
2022-08-01T09:01:27.471Z,30.09
2022-08-01T09:02:27.477Z,29.91
2022-08-01T09:03:27.530Z,30.40
2022-08-01T09:04:27.436Z,30.73
2022-08-01T09:05:39.122Z,30.53
2022-08-01T09:06:28.411Z,29.97
2022-08-01T09:07:27.402Z,29.87
2022-08-01T09:08:27.391Z,29.34
2022-08-01T09:09:27.419Z,29.54
2022-08-01T09:10:27.370Z,29.47
2022-08-01T09:11:27.430Z,29.65
2022-08-01T09:12:27.370Z,29.84
2022-08-01T09:13:27.340Z,30.32
2022-08-01T09:14:27.373Z,30.23
2022-08-01T09:15:27.323Z,30.18
2022-08-01T09:16:28.312Z,29.41
2022-08-01T09:17:27.301Z,28.51
2022-08-01T09:18:27.290Z,27.98
2022-08-01T09:19:40.106Z,27.70
2022-08-01T09:20:28.395Z,27.55
2022-08-01T09:21:27.324Z,27.58
2022-08-01T09:22:27.260Z,27.68
2022-08-01T09:23:27.236Z,27.98
2022-08-01T09:24:30.691Z,28.27
2022-08-01T09:25:29.852Z,28.94
2022-08-01T09:26:28.225Z,29.27
2022-08-01T09:27:27.195Z,29.53
2022-08-01T09:28:27.178Z,29.82
2022-08-01T09:29:37.668Z,29.93
2022-08-01T09:30:28.156Z,30.05
2022-08-01T09:31:27.166Z,30.16
2022-08-01T09:32:32.789Z,30.35
2022-08-01T09:33:28.127Z,30.30
2022-08-01T09:34:27.118Z,30.16
2022-08-01T09:35:29.982Z,30.13
2022-08-01T09:36:27.097Z,30.03
2022-08-01T09:37:27.108Z,30.00
2022-08-01T09:38:28.105Z,30.09
2022-08-01T09:39:27.075Z,30.51
2022-08-01T09:40:27.052Z,30.87
2022-08-01T09:41:27.039Z,30.44
2022-08-01T09:42:28.394Z,29.93
2022-08-01T09:43:27.103Z,30.30
2022-08-01T09:44:31.420Z,30.66
2022-08-01T09:45:27.990Z,30.83
2022-08-01T09:46:28.607Z,30.73
2022-08-01T09:47:26.971Z,30.63
2022-08-01T09:48:28.512Z,30.19
2022-08-01T09:49:27.014Z,29.76
2022-08-01T09:50:27.943Z,29.51
2022-08-01T09:51:59.658Z,29.49
2022-08-01T09:52:28.916Z,29.34
2022-08-01T09:53:30.182Z,29.22
2022-08-01T09:54:26.902Z,29.12
2022-08-01T09:55:26.882Z,29.50
2022-08-01T09:56:26.888Z,30.39
2022-08-01T09:57:26.863Z,30.81
2022-08-01T09:58:26.853Z,31.25
2022-08-01T09:59:40.992Z,31.43
2022-08-01T10:00:44.381Z,31.62
2022-08-01T10:01:36.716Z,31.58
2022-08-01T10:02:27.805Z,31.29
2022-08-01T10:03:26.830Z,31.12
2022-08-01T10:04:26.785Z,31.03
2022-08-01T10:05:26.791Z,31.12
2022-08-01T10:06:26.776Z,31.21
2022-08-01T10:07:42.554Z,31.34
2022-08-01T10:08:27.737Z,31.34
2022-08-01T10:09:26.729Z,31.42
2022-08-01T10:10:28.794Z,31.34
2022-08-01T10:11:36.130Z,31.18
2022-08-01T10:12:27.710Z,30.75
2022-08-01T10:13:26.689Z,30.50
2022-08-01T10:14:27.682Z,30.23
2022-08-01T10:15:37.210Z,30.16
2022-08-01T10:16:27.679Z,30.10
2022-08-01T10:17:50.050Z,30.09
2022-08-01T10:18:27.638Z,30.13
2022-08-01T10:19:28.859Z,30.19
2022-08-01T10:20:30.174Z,30.03
2022-08-01T10:21:56.899Z,30.05
2022-08-01T10:22:27.625Z,30.09
2022-08-01T10:23:40.836Z,30.12
2022-08-01T10:24:27.571Z,30.16
2022-08-01T10:25:42.417Z,30.13
2022-08-01T10:26:27.561Z,30.00
2022-08-01T10:27:37.899Z,29.84
2022-08-01T10:28:27.551Z,29.75
2022-08-01T10:29:59.880Z,29.56
2022-08-01T10:30:27.513Z,29.44
2022-08-01T10:31:30.695Z,29.34
2022-08-01T10:32:28.785Z,29.24
2022-08-01T10:33:51.575Z,29.26
2022-08-01T10:34:27.491Z,29.29
2022-08-01T10:35:47.520Z,29.31
2022-08-01T10:36:27.456Z,29.38
2022-08-01T10:37:26.842Z,29.54
2022-08-01T10:38:26.426Z,29.68
2022-08-01T10:39:26.436Z,29.87
2022-08-01T10:40:29.944Z,30.00
2022-08-01T10:41:26.385Z,30.13
2022-08-01T10:42:26.386Z,30.23
2022-08-01T10:43:26.368Z,30.30
2022-08-01T10:44:26.365Z,30.37
2022-08-01T10:45:26.366Z,30.44
2022-08-01T10:46:26.336Z,30.47
2022-08-01T10:47:50.034Z,30.46
2022-08-01T10:48:27.320Z,30.35
2022-08-01T10:49:26.356Z,30.30
2022-08-01T10:50:26.393Z,29.95
2022-08-01T10:51:51.125Z,29.76
2022-08-01T10:52:27.279Z,29.59
2022-08-01T10:53:31.584Z,29.39
2022-08-01T10:54:27.277Z,29.13
2022-08-01T10:55:26.251Z,29.14
2022-08-01T10:56:26.949Z,29.07
2022-08-01T10:57:27.553Z,29.16
2022-08-01T10:58:26.219Z,29.32
2022-08-01T10:59:49.294Z,29.49
2022-08-01T11:00:27.190Z,29.60
2022-08-01T11:01:26.543Z,29.69
2022-08-01T11:02:26.202Z,29.60
2022-08-01T11:03:54.482Z,29.68
2022-08-01T11:04:27.152Z,29.73
2022-08-01T11:05:26.141Z,29.81
2022-08-01T11:06:26.131Z,29.91
2022-08-01T11:07:26.144Z,30.09
2022-08-01T11:08:27.132Z,30.23
2022-08-01T11:09:30.449Z,30.23
2022-08-01T11:10:27.103Z,30.18
2022-08-01T11:11:26.074Z,30.19
2022-08-01T11:12:26.089Z,30.21
2022-08-01T11:13:26.052Z,30.18
2022-08-01T11:14:46.748Z,30.21
2022-08-01T11:15:30.218Z,30.23
2022-08-01T11:16:26.026Z,30.27
2022-08-01T11:17:26.006Z,30.09
2022-08-01T11:18:27.380Z,30.06
2022-08-01T11:19:25.986Z,30.10
2022-08-01T11:20:25.995Z,30.18
2022-08-01T11:21:59.305Z,30.19
2022-08-01T11:22:26.956Z,30.15
2022-08-01T11:23:25.945Z,30.10
2022-08-01T11:24:25.936Z,30.06
2022-08-01T11:26:05.732Z,30.09
2022-08-01T11:26:29.117Z,30.08
2022-08-01T11:27:25.898Z,30.03
2022-08-01T11:28:32.070Z,29.98
2022-08-01T11:29:26.879Z,29.91
2022-08-01T11:30:25.871Z,29.76
2022-08-01T11:31:25.856Z,29.65
2022-08-01T11:32:25.917Z,29.61
2022-08-01T11:33:25.839Z,29.66
2022-08-01T11:34:25.830Z,29.72
2022-08-01T11:35:25.835Z,29.73
2022-08-01T11:36:56.636Z,29.69
2022-08-01T11:37:30.405Z,29.61
2022-08-01T11:38:25.791Z,29.59
2022-08-01T11:39:25.771Z,29.59
2022-08-01T11:40:25.761Z,29.76
2022-08-01T11:41:38.102Z,29.93
2022-08-01T11:42:26.857Z,30.09
2022-08-01T11:43:25.757Z,30.27
2022-08-01T11:44:25.721Z,30.40
2022-08-01T11:45:25.731Z,30.25
2022-08-01T11:46:25.702Z,29.95
2022-08-01T11:47:25.713Z,29.75
2022-08-01T11:48:27.758Z,29.79
2022-08-01T11:49:25.763Z,29.76
2022-08-01T11:50:25.653Z,29.65
2022-08-01T11:51:25.811Z,29.45
2022-08-01T11:52:25.633Z,29.34
2022-08-01T11:53:27.018Z,29.24
2022-08-01T11:54:35.044Z,29.35
2022-08-01T11:55:26.605Z,29.45
2022-08-01T11:56:28.800Z,29.49
2022-08-01T11:57:34.532Z,29.45
2022-08-01T11:58:27.753Z,29.51
2022-08-01T11:59:25.554Z,29.54
2022-08-01T12:00:26.567Z,29.59
2022-08-01T12:01:25.534Z,29.68
2022-08-01T12:02:30.652Z,29.79
2022-08-01T12:03:33.601Z,29.87
2022-08-01T12:04:26.497Z,29.95
2022-08-01T12:05:25.487Z,30.02
2022-08-01T12:06:25.586Z,30.08
2022-08-01T12:07:25.467Z,30.10
2022-08-01T12:08:25.457Z,30.02
2022-08-01T12:09:25.448Z,29.95
2022-08-01T12:10:25.437Z,29.91
2022-08-01T12:11:25.420Z,29.82
2022-08-01T12:12:26.439Z,29.72
2022-08-01T12:13:25.402Z,29.60
2022-08-01T12:14:25.391Z,29.53
2022-08-01T12:15:25.398Z,29.39
2022-08-01T12:16:27.618Z,29.27
2022-08-01T12:17:26.352Z,29.14
2022-08-01T12:18:25.360Z,29.13
2022-08-01T12:19:25.331Z,28.94
2022-08-01T12:20:25.324Z,28.76
2022-08-01T12:21:25.321Z,28.76
2022-08-01T12:22:25.316Z,28.85
2022-08-01T12:23:25.321Z,28.91
2022-08-01T12:24:25.281Z,29.01
2022-08-01T12:25:25.265Z,29.04
2022-08-01T12:26:26.593Z,29.17
2022-08-01T12:27:26.245Z,29.29
2022-08-01T12:28:25.244Z,29.38
2022-08-01T12:29:25.335Z,29.45
2022-08-01T12:30:25.421Z,29.44
2022-08-01T12:31:25.215Z,29.45
2022-08-01T12:32:27.642Z,29.61
2022-08-01T12:33:26.174Z,29.79
2022-08-01T12:34:25.165Z,29.94
2022-08-01T12:35:25.177Z,29.98
2022-08-01T12:36:25.155Z,30.09
2022-08-01T12:37:25.136Z,30.30
2022-08-01T12:38:25.127Z,30.48
2022-08-01T12:39:25.117Z,30.34
2022-08-01T12:40:25.156Z,30.31
2022-08-01T12:41:25.086Z,30.46
2022-08-01T12:42:25.086Z,30.62
2022-08-01T12:43:28.267Z,30.65
2022-08-01T12:44:25.075Z,30.61
2022-08-01T12:45:25.048Z,30.59
2022-08-01T12:46:25.059Z,30.63
2022-08-01T12:47:25.038Z,30.75
2022-08-01T12:48:25.009Z,30.87
2022-08-01T12:49:25.078Z,31.00
2022-08-01T12:50:25.002Z,31.02
2022-08-01T12:51:24.989Z,31.14
2022-08-01T12:52:26.822Z,31.25